DL1RF-13 Weather Reports


Display with metric or nautical units.
time (UTC)temp
F
wind
direction
speed
MPH
gust
MPH
rain 1hr
in
rain 24hr
in
rain mn
in
humidity
%
barometer
mb
20230208143018 33 68 8.0 17.0 0.00 0.00 0.00 66
20230208142017 33 68 4.0 12.0 0.00 0.00 0.00 70
20230208140017 33 68 7.0 16.0 0.00 0.00 0.00 70
20230208135017 32 68 7.0 14.0 0.00 0.00 0.00 70
20230208134017 32 68 7.0 16.0 0.00 0.00 0.00 70
20230208133017 32 68 8.0 18.0 0.00 0.00 0.00 71
20230208132017 32 68 6.0 15.0 0.00 0.00 0.00 72
20230208131017 32 68 9.0 14.0 0.00 0.00 0.00 73
20230208130017 32 68 8.0 16.0 0.00 0.00 0.00 72
20230208125017 32 68 6.0 18.0 0.00 0.00 0.00 73
20230208124017 31 68 5.0 16.0 0.00 0.00 0.00 75
20230208123101 30 68 7.0 16.0 0.00 0.00 0.00 74
20230208122017 30 68 8.0 23.0 0.00 0.00 0.00 75
20230208121037 30 68 6.0 14.0 0.00 0.00 0.00 77
20230208120038 30 68 9.0 17.0 0.00 0.00 0.00 78
20230208115017 29 68 5.0 15.0 0.00 0.00 0.00 79
20230208114037 28 68 8.0 15.0 0.00 0.00 0.00 80
20230208113017 29 68 7.0 21.0 0.00 0.00 0.00 78
20230208112017 29 45 4.0 15.0 0.00 0.00 0.00 78
20230208111020 29 68 6.0 16.0 0.00 0.00 0.00 79
20230208110020 29 45 5.0 12.0 0.00 0.00 0.00 79
20230208105037 28 68 5.0 13.0 0.00 0.00 0.00 81
20230208104017 28 68 6.0 15.0 0.00 0.00 0.00 81
20230208103020 28 68 6.0 13.0 0.00 0.00 0.00 82
20230208102040 28 68 7.0 16.0 0.00 0.00 0.00 82
20230208101017 27 68 10.0 19.0 0.00 0.00 0.00 81
20230208100037 28 68 10.0 19.0 0.00 0.00 0.00 81
20230208095016 27 68 6.0 15.0 0.00 0.00 0.00 83
20230208094016 27 68 6.0 16.0 0.00 0.00 0.00 84
20230208093017 27 68 5.0 15.0 0.00 0.00 0.00 83
20230208092016 26 68 9.0 18.0 0.00 0.00 0.00 83
20230208091017 26 68 7.0 17.0 0.00 0.00 0.00 84
20230208090016 25 68 10.0 19.0 0.00 0.00 0.00 85
20230208085122 25 68 8.0 17.0 0.00 0.00 0.00 85
20230208084016 25 68 6.0 14.0 0.00 0.00 0.00 86
20230208083017 25 68 4.0 15.0 0.00 0.00 0.00 86
20230208082017 24 68 6.0 16.0 0.00 0.00 0.00 87
20230208081016 24 68 2.0 11.0 0.00 0.00 0.00 88
20230208080017 24 68 7.0 14.0 0.00 0.00 0.00 88
20230208075016 23 68 6.0 11.0 0.00 0.00 0.00 89
20230208074017 22 68 7.0 14.0 0.00 0.00 0.00 90
20230208073037 22 68 7.0 12.0 0.00 0.00 0.00 90
20230208072016 21 68 6.0 12.0 0.00 0.00 0.00 91
20230208071016 21 68 3.0 11.0 0.00 0.00 0.00 91
20230208070017 21 68 3.0 9.0 0.00 0.00 0.00 91
20230208065141 21 68 1.0 9.0 0.00 0.00 0.00 91
20230208064017 21 68 4.0 12.0 0.00 0.00 0.00 90
20230208063016 21 68 2.0 11.0 0.00 0.00 0.00 90
20230208062016 21 68 3.0 10.0 0.00 0.00 0.00 90
20230208061016 21 68 5.0 12.0 0.00 0.00 0.00 90
20230208060016 21 68 4.0 10.0 0.00 0.00 0.00 89
20230208055016 21 68 4.0 9.0 0.00 0.00 0.00 89
20230208054057 21 68 4.0 10.0 0.00 0.00 0.00 89
20230208053016 21 68 1.0 8.0 0.00 0.00 0.00 88
20230208052016 21 68 0.0 4.0 0.00 0.00 0.00 88
20230208051016 21 68 0.0 3.0 0.00 0.00 0.00 88
20230208050016 21 68 0.0 8.0 0.00 0.00 0.00 87
20230208045016 21 68 1.0 8.0 0.00 0.00 0.00 87
20230208044016 21 68 0.0 5.0 0.00 0.00 0.00 87
20230208043016 21 90 0.0 5.0 0.00 0.00 0.00 86
20230208042016 21 68 0.0 8.0 0.00 0.00 0.00 86
20230208041016 21 67 0.0 0.0 0.00 0.00 0.00 86
20230208040015 22 67 0.0 0.0 0.00 0.00 0.00 86
20230208035016 22 65 0.0 0.0 0.00 0.00 0.00 86
20230208034019 21 68 3.0 9.0 0.00 0.00 0.00 87
20230208033016 21 68 0.0 5.0 0.00 0.00 0.00 87
20230208032016 21 74 0.0 0.0 0.00 0.00 0.00 87
20230208031017 21 68 0.0 1.0 0.00 0.00 0.00 87
20230208030019 21 65 0.0 0.0 0.00 0.00 0.00 87
20230208025016 21 68 0.0 3.0 0.00 0.00 0.00 87
20230208024016 21 45 0.0 6.0 0.00 0.00 0.00 87
20230208023016 21 51 0.0 0.0 0.00 0.00 0.00 87
20230208022016 21 47 0.0 0.0 0.00 0.00 0.00 87
20230208021036 22 60 0.0 0.0 0.00 0.00 0.00 87
20230208020016 22 32 0.0 0.0 0.00 0.00 0.00 86
20230208015015 22 38 0.0 0.0 0.00 0.00 0.00 86
20230208014016 22 25 0.0 0.0 0.00 0.00 0.00 86
20230208013059 22 67 0.0 0.0 0.00 0.00 0.00 86
20230208012019 22 68 0.0 0.0 0.00 0.00 0.00 86
20230208011016 22 68 0.0 0.0 0.00 0.00 0.00 86
20230208010016 22 68 0.0 4.0 0.00 0.00 0.00 86
20230208005016 22 68 1.0 6.0 0.00 0.00 0.00 87
20230208004016 21 68 1.0 8.0 0.00 0.00 0.00 88
20230208003016 21 68 0.0 4.0 0.00 0.00 0.00 88
20230208002015 21 68 1.0 5.0 0.00 0.00 0.00 87
20230208001036 21 68 0.0 5.0 0.00 0.00 0.00 87
20230208000016 21 68 0.0 0.0 0.00 0.00 0.00 87
20230207235015 21 78 0.0 2.0 0.00 0.00 0.00 86
20230207234036 21 78 0.0 0.0 0.00 0.00 0.00 85
20230207233016 21 78 0.0 0.0 0.00 0.00 0.00 85
20230207232015 21 78 0.0 0.0 0.00 0.00 0.00 85
20230207231018 21 78 0.0 0.0 0.00 0.00 0.00 84
20230207230017 22 78 0.0 0.0 0.00 0.00 0.00 84
20230207225017 22 78 0.0 0.0 0.00 0.00 0.00 84
20230207224017 22 78 0.0 0.0 0.00 0.00 0.00 84
20230207223017 22 78 0.0 0.0 0.00 0.00 0.00 84
20230207222038 22 68 0.0 1.0 0.00 0.00 0.00 84
20230207221017 22 78 0.0 0.0 0.00 0.00 0.00 84
20230207220017 22 78 0.0 0.0 0.00 0.00 0.00 84
20230207215037 22 78 0.0 0.0 0.00 0.00 0.00 83
20230207214037 23 78 0.0 0.0 0.00 0.00 0.00 83
20230207213016 23 78 0.0 0.0 0.00 0.00 0.00 83
20230207212017 23 78 0.0 0.0 0.00 0.00 0.00 83
20230207211020 23 78 0.0 0.0 0.00 0.00 0.00 83
20230207210017 23 78 0.0 0.0 0.00 0.00 0.00 82
20230207205017 23 78 0.0 0.0 0.00 0.00 0.00 82
20230207204019 23 78 0.0 0.0 0.00 0.00 0.00 81
20230207203017 23 78 0.0 0.0 0.00 0.00 0.00 80
20230207202017 24 78 0.0 0.0 0.00 0.00 0.00 78
20230207201024 24 78 0.0 0.0 0.00 0.00 0.00 78
20230207200037 24 78 0.0 0.0 0.00 0.00 0.00 77
20230207195017 24 78 0.0 0.0 0.00 0.00 0.00 77
20230207194017 24 78 0.0 0.0 0.00 0.00 0.00 77
20230207193015 24 78 0.0 0.0 0.00 0.00 0.00 78
20230207192017 24 78 0.0 0.0 0.00 0.00 0.00 77
20230207191017 25 78 0.0 0.0 0.00 0.00 0.00 75
20230207190017 25 78 0.0 0.0 0.00 0.00 0.00 75
20230207185017 25 78 0.0 0.0 0.00 0.00 0.00 74
20230207184059 26 78 0.0 0.0 0.00 0.00 0.00 74
20230207183017 26 78 0.0 0.0 0.00 0.00 0.00 72
20230207182017 26 78 0.0 0.0 0.00 0.00 0.00 70
20230207181020 27 78 0.0 0.0 0.00 0.00 0.00 69
20230207180017 27 78 0.0 0.0 0.00 0.00 0.00 68
20230207175020 27 78 0.0 0.0 0.00 0.00 0.00 67
20230207174016 28 78 0.0 0.0 0.00 0.00 0.00 66
20230207173017 28 78 0.0 0.0 0.00 0.00 0.00 65
20230207172017 28 78 0.0 0.0 0.00 0.00 0.00 66
20230207171016 29 78 0.0 0.0 0.00 0.00 0.00 65
20230207170057 29 68 0.0 4.0 0.00 0.00 0.00 64
20230207165019 29 78 0.0 0.0 0.00 0.00 0.00 63
20230207164017 30 82 0.0 0.0 0.00 0.00 0.00 63
20230207163016 30 68 0.0 3.0 0.00 0.00 0.00 61
20230207162044 31 68 0.0 0.0 0.00 0.00 0.00 60
20230207161017 31 68 1.0 7.0 0.00 0.00 0.00 59
20230207160016 32 68 1.0 9.0 0.00 0.00 0.00 58
20230207155019 32 68 2.0 11.0 0.00 0.00 0.00 57
20230207154020 32 68 4.0 11.0 0.00 0.00 0.00 56
20230207153017 33 68 2.0 13.0 0.00 0.00 0.00 56
20230207152037 33 68 2.0 11.0 0.00 0.00 0.00 57
20230207151017 33 68 2.0 12.0 0.00 0.00 0.00 58
20230207150038 33 68 3.0 12.0 0.00 0.00 0.00 57
20230207145037 33 68 4.0 12.0 0.00 0.00 0.00 56
20230207144040 33 68 6.0 16.0 0.00 0.00 0.00 56